ADDS METAR Data INFO
IDs: Format: Raw Decoded Include TAF

Data at: 1308 UTC 11 Dec 2017

KJER 111300Z AUTO 14003KT 1/4SM HZ VV001 M08/M12 A3059 RMK AO2 T10831117 $
KJER 111253Z AUTO 12003KT 1/2SM HZ VV001 M08/M11 A3059 RMK AO2 SLP410 I1000 T10831111 $
KJER 111237Z AUTO 15003KT 1/2SM HZ VV001 M08/M11 A3059 RMK AO2 T10831111 $
KJER 111230Z AUTO 13003KT 1SM HZ VV001 M08/M12 A3059 RMK AO2 T10831117 $
KJER 111227Z AUTO 13003KT 3/4SM HZ VV002 M08/M12 A3059 RMK AO2 T10781117 $
KJER 111153Z AUTO 00000KT 1/4SM HZ VV001 M07/M10 A3059 RMK AO2 SLP405 I1000 I6002 T10671100 11056 21089 58004 $
KJER 111053Z AUTO 00000KT 1/4SM HZ VV001 M06/M09 A3060 RMK AO2 SLP401 T10611094 $
KJER 111023Z AUTO 00000KT 1/4SM HZ VV002 M06/M09 A3060 RMK AO2 T10561094 $
KJER 110953Z AUTO 00000KT 1/4SM HZ VV001 M06/M09 A3061 RMK AO2 SLP405 I1001 T10561089 $
KJER 110853Z AUTO 00000KT 1/4SM FZFG VV001 M07/M08 A3061 RMK AO2 SLP404 I1001 I3001 T10671083 58004 $
KJER 110821Z AUTO 30003KT 1/4SM FZFG VV001 M08/M08 A3061 RMK AO2 I1000 T10781083 $
KJER 110802Z AUTO 00000KT 1/4SM FZFG VV002 M08/M08 A3061 RMK AO2 T10781083 $
KJER 110753Z AUTO 30003KT 1/2SM FZFG VV002 M07/M08 A3061 RMK AO2 SLP408 I1000 T10721078 $
KJER 110739Z AUTO 00000KT 1/4SM FZFG VV002 M08/M09 A3061 RMK AO2 I1000 T10781089 $
KJER 110731Z AUTO 00000KT 1/2SM FZFG VV002 M08/M09 A3061 RMK AO2 T10831094 $
KJER 110720Z AUTO 00000KT 1 1/2SM BR OVC002 M09/M09 A3061 RMK AO2 T10891094 $
KJER 110709Z AUTO 00000KT 6SM BR BKN002 M08/M10 A3062 RMK AO2 T10831100 $
KJER 110653Z AUTO 00000KT 6SM BR SCT005 M08/M10 A3062 RMK AO2 SLP414 I1000 T10831100 410111094 $
KJER 110621Z AUTO 15003KT 8SM BKN005 M08/M09 A3062 RMK AO2 I1000 T10831094 $
KJER 110612Z AUTO 12003KT 8SM SCT004 M09/M10 A3062 RMK AO2 T10891100 $
KJER 110553Z AUTO 04004KT 6SM BR CLR M08/M09 A3062 RMK AO2 SLP415 T10781094 11050 21083 53007 $
KJER 110453Z AUTO 01004KT 6SM BR CLR M08/M09 A3061 RMK AO2 SLP416 T10781089 $
KJER 110353Z AUTO 36004KT 5SM BR CLR M08/M09 A3060 RMK AO2 SLP411 T10781089 $
KJER 110253Z AUTO 32005KT 6SM BR CLR M07/M09 A3059 RMK AO2 SLP409 T10721089 53001 $
KJER 110153Z AUTO 33003KT 6SM BR CLR M07/M08 A3059 RMK AO2 SLP407 T10721083 $
KJER 110053Z AUTO 24004KT 8SM CLR M06/M08 A3059 RMK AO2 SLP406 T10611078 $
KJER 102353Z AUTO 25005KT 9SM CLR M04/M07 A3059 RMK AO2 SLP404 T10441072 11011 21044 58005 $
KJER 102253Z AUTO 21003KT 10SM CLR M02/M06 A3060 RMK AO2 SLP401 T10221056 $
KJER 102153Z AUTO 00000KT 10SM CLR M02/M05 A3061 RMK AO2 SLP404 T10221050 $
KJER 102053Z AUTO 18003KT 10SM FEW010 M02/M04 A3061 RMK AO2 SLP405 T10171044 56021 $
KJER 102042Z AUTO 00000KT 10SM SCT008 M02/M05 A3062 RMK AO2 T10221050 $
KJER 101953Z AUTO 14003KT 9SM OVC007 M02/M06 A3063 RMK AO2 SLP410 T10221061 $
KJER 101907Z AUTO 09004KT 7SM OVC005 M02/M06 A3065 RMK AO2 T10171056 $
KJER 101853Z AUTO 00000KT 6SM HZ OVC004 M03/M07 A3066 RMK AO2 SLP425 T10331067 $
KJER 101753Z AUTO 10006KT 5SM HZ OVC003 M04/M08 A3068 RMK AO2 SLP437 60000 I6000 T10441078 11044 21067 51005 $
KJER 101653Z AUTO 08007KT 3SM HZ OVC002 M06/M08 A3067 RMK AO2 SLP438 T10561083 $
KJER 101651Z AUTO 09007KT 3SM HZ OVC002 M06/M08 A3067 RMK AO2 $
KJER 101553Z AUTO 12006KT 1 1/4SM HZ OVC002 M06/M08 A3067 RMK AO2 SLP439 I1000 T10561083 $
KJER 101543Z AUTO 12005KT 1 3/4SM HZ OVC002 M06/M08 A3067 RMK AO2 I1000 T10561083 $
KJER 101528Z AUTO 11006KT 2SM HZ OVC002 M06/M09 A3066 RMK AO2 I1000 T10561089 $
KJER 101453Z AUTO 10006KT 1 1/4SM HZ OVC002 M06/M09 A3066 RMK AO2 SNE10 SLP433 P0000 60000 T10611089 50002 $
KJER 101442Z AUTO 10007KT 2 1/2SM HZ OVC002 M06/M09 A3066 RMK AO2 SNE10 P0000 T10561089 $
KJER 101431Z AUTO 10006KT 3SM HZ OVC002 M06/M09 A3066 RMK AO2 SNE10 P0000 T10561089 $
KJER 101353Z AUTO 08005KT 2 1/2SM -SN OVC002 M06/M08 A3067 RMK AO2 SLP433 P0000 T10561083 $
KJER 101331Z AUTO 07004KT 2 1/2SM -SN OVC002 M06/M09 A3066 RMK AO2 P0000 T10561089 $
KJER 101321Z AUTO 07005KT 1 1/2SM -SN OVC002 M06/M09 A3066 RMK AO2 P0000 T10561089 $
KJER 101253Z AUTO 08005KT 1/2SM SN VV002 M06/M09 A3066 RMK AO2 SLP427 P0000 T10611094 $
KJER 101239Z AUTO 06006KT 1/2SM SN VV002 M06/M09 A3065 RMK AO2 P0000 T10611094 $
KJER 101223Z AUTO 07005KT 1/4SM +SN VV002 M07/M09 A3065 RMK AO2 P0000 T10671094 $
KJER 101214Z AUTO 08006KT 1/2SM SN VV002 M06/M09 A3066 RMK AO2 P0000 T10611094 $
KJER 101153Z AUTO 07005KT 1/4SM +SN VV002 M07/M09 A3066 RMK AO2 SNB1056 SLP427 P0000 60000 I6000 T10671094 11050 21078 58004 $
KJER 101108Z AUTO 09004KT 1/4SM +SN VV002 M07/M09 A3067 RMK AO2 SNB1056 P0000 T10671094 $
KJER 101100Z AUTO 06004KT 1/2SM SN VV002 M06/M09 A3067 RMK AO2 SNB1056 P0000 T10611094 $
KJER 101053Z AUTO 06005KT 1/4SM HZ VV002 M06/M09 A3067 RMK AO2 SLP430 I1000 T10611094 $
KJER 100953Z AUTO 05004KT 1/4SM HZ VV002 M06/M09 A3067 RMK AO2 SLP429 T10611089 $
KJER 100853Z AUTO 07003KT 1/4SM FZFG VV002 M06/M08 A3067 RMK AO2 SLP430 I3000 T10611083 50003 $
KJER 100830Z AUTO 08004KT 1/4SM HZ VV002 M06/M08 A3067 RMK AO2 T10561083 $
KJER 100753Z AUTO 09003KT 1/2SM FZFG VV002 M05/M07 A3067 RMK AO2 SLP429 T10501072 $
KJER 100701Z AUTO 08004KT 1/2SM FZFG VV002 M07/M08 A3067 RMK AO2 T10671078 $
KJER 100653Z AUTO 10005KT 1/4SM FZFG VV001 M07/M08 A3067 RMK AO2 SLP432 I1000 T10671078 410331094 $
KJER 100640Z AUTO 09006KT 1/4SM FZFG VV001 M07/M08 A3067 RMK AO2 I1000 T10721083 $
KJER 100628Z AUTO 09004KT 1/2SM FZFG VV001 M07/M08 A3067 RMK AO2 I1000 T10721078 $
KJER 100614Z AUTO 09004KT 1/4SM FZFG VV001 M07/M08 A3066 RMK AO2 T10721083 $
KJER 100608Z AUTO 09005KT 1/2SM FZFG VV002 M07/M08 A3066 RMK AO2 T10721083 $
KJER 100559Z AUTO 08004KT 1 1/2SM BR BKN003 M07/M09 A3066 RMK AO2 T10721089 $
KJER 100553Z AUTO 08005KT 4SM BR BKN003 M08/M10 A3066 RMK AO2 SLP433 I1000 I6001 T10831100 11044 21094 51002 $
KJER 100550Z AUTO 08005KT 6SM BR BKN003 M09/M10 A3066 RMK AO2 I1000 $
KJER 100540Z AUTO 08004KT 7SM SCT004 M09/M10 A3066 RMK AO2 T10891100 $
KJER 100531Z AUTO 08004KT 3SM BR BKN004 M09/M10 A3066 RMK AO2 T10891100 $
KJER 100529Z AUTO 07005KT 1 1/4SM BR BKN004 M09/M10 A3066 RMK AO2 T10891100 $
KJER 100524Z AUTO 08006KT 1/4SM FZFG VV003 M08/M09 A3066 RMK AO2 T10831094 $
KJER 100509Z AUTO 09006KT 1/4SM FZFG VV001 M08/M09 A3066 RMK AO2 T10781089 $
KJER 100453Z AUTO 09005KT 1/4SM FZFG VV003 M08/M09 A3066 RMK AO2 SLP433 I1001 T10781089 $
KJER 100445Z AUTO 09005KT 1SM BR VV004 M08/M09 A3066 RMK AO2 I1001 T10831094 $
KJER 100441Z AUTO 09005KT 2 1/2SM BR BKN005 M08/M09 A3066 RMK AO2 I1000 T10831094 $
KJER 100435Z AUTO 10005KT 6SM BR SCT009 M08/M09 A3066 RMK AO2 I1000 T10831094 $
KJER 100353Z AUTO 09006KT 7SM CLR M09/M10 A3066 RMK AO2 SLP433 I1000 T10891100 $
KJER 100253Z AUTO 11004KT 9SM CLR M08/M09 A3065 RMK AO2 SLP431 T10781094 53009 $
KJER 100153Z AUTO 12003KT 9SM CLR M07/M09 A3064 RMK AO2 SLP426 T10721089 $